EW6927 Weather Reports


Display with metric or nautical units.
time (UTC)temp
F
wind
direction
speed
MPH
gust
MPH
rain 1hr
in
rain 24hr
in
rain mn
in
humidity
%
barometer
mb
20200804084526 65 0.0 0.0 0.00 0.44 0.00 98 1009.9
20200804083018 65 0.0 0.0 0.00 0.44 0.00 98 1009.8
20200804081651 65 0.0 0.0 0.00 0.44 0.00 98 1009.8
20200804080057 65 0.0 0.0 0.00 0.44 0.00 98 1009.9
20200804074608 65 0.0 0.0 0.00 0.47 0.00 98 1010.1
20200804073051 66 0.0 0.0 0.00 0.47 0.00 98 1009.9
20200804071717 66 0.0 0.0 0.00 0.47 0.00 98 1009.8
20200804070213 66 0.0 0.0 0.00 0.47 0.00 98 1010.0
20200804064550 66 0.0 0.0 0.00 0.49 0.00 98 1010.1
20200804063039 66 0.0 0.0 0.00 0.49 0.00 98 1010.2
20200804061501 66 0.0 0.0 0.00 0.49 0.00 98 1010.7
20200804060221 66 0.0 0.0 0.00 0.49 0.00 98 1010.8
20200804054600 66 0.0 0.0 0.00 0.49 0.00 98 1011.1
20200804053113 66 0.0 0.0 0.00 0.49 0.00 98 1011.0
20200804051548 66 0.0 0.0 0.00 0.49 0.00 98 1011.2
20200804050031 66 0.0 0.0 0.00 0.49 0.00 98 1011.3
20200804044625 66 0.0 0.0 0.00 0.49 0.00 98 1011.3
20200804043100 66 0.0 0.0 0.00 0.49 0.00 98 1011.5
20200804041547 66 0.0 0.0 0.00 0.49 0.00 98 1011.8
20200804040017 66 0.0 0.0 0.00 0.49 0.00 98 1012.0
20200804034705 66 0.0 0.0 0.00 0.49 0.49 97 1011.7
20200804033124 66 0.0 0.0 0.00 0.49 0.49 98 1012.2
20200804031532 66 0.0 0.0 0.00 0.49 0.49 97 1012.3
20200804030027 66 0.0 0.0 0.00 0.49 0.49 97 1012.6
20200804024508 66 0.0 0.0 0.00 0.49 0.49 97 1013.3
20200804023015 66 0.0 0.0 0.00 0.49 0.49 96 1012.9
20200804021742 66 0.0 0.0 0.00 0.49 0.49 96 1012.5
20200804020135 66 0.0 0.0 0.00 0.49 0.49 96 1012.5
20200804014606 66 0.0 0.0 0.00 0.50 0.49 96 1012.4
20200804013135 66 0.0 0.0 0.00 0.50 0.49 96 1012.5
20200804011633 67 0.0 0.0 0.00 0.50 0.49 96 1012.3
20200804010232 66 0.0 0.0 0.00 0.50 0.49 96 1012.2
20200804004526 66 0.0 0.0 0.00 0.50 0.49 97 1012.5
20200804003020 66 0.0 0.0 0.00 0.50 0.49 97 1012.7
20200804001740 66 0.0 0.0 0.01 0.50 0.49 97 1012.6
20200804000054 66 0.0 0.0 0.01 0.50 0.49 97 1012.8
20200803234523 66 0.0 0.0 0.01 0.50 0.49 97 1012.8
20200803233029 67 0.0 0.0 0.01 0.50 0.49 97 1012.9
20200803231652 67 0.0 0.0 0.00 0.49 0.48 97 1013.1
20200803230114 67 0.0 0.0 0.00 0.49 0.48 97 1013.1
20200803224616 67 0.0 0.0 0.00 0.49 0.48 96 1013.1
20200803223027 68 0.0 0.0 0.00 0.49 0.48 96 1013.0
20200803221536 68 0.0 0.0 0.00 0.49 0.48 95 1013.2
20200803220006 69 0.0 0.0 0.00 0.49 0.48 94 1013.4
20200803214816 69 0.0 0.0 0.00 0.49 0.48 92 1013.5
20200803213116 70 0.0 0.0 0.00 0.49 0.48 91 1013.6
20200803211545 70 0.0 0.0 0.00 0.49 0.48 93 1013.6
20200803210022 70 0.0 0.0 0.00 0.49 0.48 91 1013.9
20200803204712 71 0.0 0.0 0.00 0.49 0.48 90 1014.1
20200803203121 70 0.0 0.0 0.00 0.49 0.48 90 1014.0
20200803201541 71 0.0 0.0 0.00 0.49 0.48 89 1014.4
20200803200045 71 0.0 0.0 0.00 0.49 0.48 87 1014.6
20200803194829 69 0.0 0.0 0.00 0.50 0.48 88 1014.9
20200803193142 69 0.0 0.0 0.00 0.50 0.48 90 1014.7
20200803191553 69 0.0 0.0 0.00 0.50 0.48 87 1014.7
20200803190039 68 0.0 0.0 0.00 0.50 0.48 86 1015.0
20200803184516 69 0.0 0.0 0.00 0.50 0.48 87 1015.6
20200803183114 70 0.0 0.0 0.00 0.50 0.48 86 1015.7
20200803181558 71 0.0 0.0 0.00 0.50 0.48 85 1015.7
20200803180047 71 0.0 0.0 0.00 0.50 0.48 87 1015.7
20200803174521 72 0.0 0.0 0.00 0.50 0.48 90 1015.7
20200803173018 73 0.0 0.0 0.00 0.50 0.48 91 1015.7
20200803130114 70 0.0 0.0 0.01 0.14 0.12 98 1015.2
20200803124554 69 0.0 0.0 0.01 0.14 0.12 98 1015.1
20200803123225 68 0.0 0.0 0.01 0.13 0.11 98 1015.0
20200803121635 68 0.0 0.0 0.01 0.13 0.11 98 1014.9
20200803120027 68 0.0 0.0 0.02 0.13 0.11 97 1015.2
20200803114527 68 0.0 0.0 0.02 0.13 0.11 97 1015.2
20200803113219 68 0.0 0.0 0.01 0.12 0.10 97 1015.0
20200803111649 67 0.0 0.0 0.01 0.12 0.10 97 1014.8
20200803110044 66 0.0 0.0 0.01 0.11 0.09 97 1014.7
20200803104543 66 0.0 0.0 0.01 0.11 0.09 97 1014.5
20200803103007 67 0.0 0.0 0.02 0.11 0.09 97 1014.8
20200803101658 67 0.0 0.0 0.02 0.11 0.09 97 1014.9
20200803100111 68 0.0 0.0 0.01 0.10 0.08 97 1015.5
20200803094605 68 0.0 0.0 0.02 0.10 0.08 97 1014.8
20200803093013 68 0.0 0.0 0.01 0.09 0.07 97 1014.9
20200803091511 69 0.0 0.0 0.02 0.09 0.07 97 1014.3
20200803090245 69 0.0 0.0 0.02 0.09 0.07 97 1014.3